Lovelace, Texas
Current Conditions -  °F | °C
As of 9:35 AM on Friday 24 Oct 2014 (Local Time) from KINJ Reporting Station
Clear Clear  
Wind Chill: 67°   Ceiling: Unl
Heat Index: 67°   Visibility: 10mi
Dew Point: 53°   Wind: 10mph
Humidity: 61%   Direction: 170°S
Pressure: 30.18"   Gusts: NA
Location:  32.0499°N, 97.1039°W
Report Text: KINJ 241435Z AUTO 17009KT 10SM CLR 19/12 A3018 RMK AO2 T01930115
Loading
Personal Weather Stations






























Interactive Weather Map
Tropical Storm Tracking
New forecast layout! Learn more

10-Day Weather Forecast

Advertisements
Track Severe Weather on mobile